| time (UTC) | temp C | wind direction | speed KPH | gust KPH | rain 1hr cm | rain 24hr cm | rain mn cm | humidity % | barometer mb |
| 20260906215658 | 28 | 67 | 8.0 | 29.0 | 0.00 | 0.00 | 0.00 | 33 | 1021.7 |
| 20260906215156 | 28 | 156 | 8.0 | 22.5 | 0.00 | 0.00 | 0.00 | 32 | 1021.8 |
| 20260906214655 | 29 | 82 | 8.0 | 24.1 | 0.00 | 0.00 | 0.00 | 30 | 1022.0 |
| 20260906214150 | 29 | 136 | 17.7 | 30.6 | 0.00 | 0.00 | 0.00 | 31 | 1022.0 |
| 20260906213649 | 29 | 154 | 20.9 | 25.7 | 0.00 | 0.00 | 0.00 | 32 | 1022.2 |
| 20260906213144 | 28 | 176 | 3.2 | 20.9 | 0.00 | 0.00 | 0.00 | 33 | 1022.2 |
| 20260906212641 | 28 | 190 | 12.9 | 20.9 | 0.00 | 0.00 | 0.00 | 32 | 1022.3 |
| 20260906212137 | 28 | 151 | 19.3 | 27.4 | 0.00 | 0.00 | 0.00 | 33 | 1022.0 |
| 20260906211637 | 28 | 116 | 6.4 | 20.9 | 0.00 | 0.00 | 0.00 | 33 | 1022.0 |
| 20260906211132 | 28 | 139 | 9.7 | 16.1 | 0.00 | 0.00 | 0.00 | 34 | 1022.4 |
| 20260906210628 | 28 | 190 | 12.9 | 17.7 | 0.00 | 0.00 | 0.00 | 35 | 1022.5 |
| 20260906210122 | 28 | 167 | 12.9 | 24.1 | 0.00 | 0.00 | 0.00 | 34 | 1022.2 |
| 20260906205618 | 28 | 145 | 11.3 | 17.7 | 0.00 | 0.00 | 0.00 | 34 | 1022.4 |
| 20260906205114 | 28 | 92 | 3.2 | 16.1 | 0.00 | 0.00 | 0.00 | 35 | 1022.4 |
| 20260906204613 | 28 | 160 | 6.4 | 20.9 | 0.00 | 0.00 | 0.00 | 34 | 1022.3 |
| 20260906204108 | 28 | 140 | 12.9 | 20.9 | 0.00 | 0.00 | 0.00 | 33 | 1022.6 |
| 20260906203608 | 28 | 132 | 3.2 | 17.7 | 0.00 | 0.00 | 0.00 | 34 | 1022.9 |
| 20260906203103 | 28 | 139 | 6.4 | 20.9 | 0.00 | 0.00 | 0.00 | 34 | 1022.8 |
| 20260906202559 | 28 | 138 | 12.9 | 16.1 | 0.00 | 0.00 | 0.00 | 34 | 1022.6 |
| 20260906202100 | 28 | 186 | 16.1 | 20.9 | 0.00 | 0.00 | 0.00 | 34 | 1022.9 |
| 20260906201600 | 28 | 200 | 6.4 | 14.5 | 0.00 | 0.00 | 0.00 | 34 | 1022.9 |
| 20260906201059 | 28 | 93 | 4.8 | 16.1 | 0.00 | 0.00 | 0.00 | 35 | 1022.8 |
| 20260906200555 | 28 | 164 | 4.8 | 12.9 | 0.00 | 0.00 | 0.00 | 34 | 1023.0 |
| 20260906200051 | 28 | 201 | 11.3 | 20.9 | 0.00 | 0.00 | 0.00 | 33 | 1023.0 |
| 20260906195546 | 28 | 209 | 9.7 | 17.7 | 0.00 | 0.00 | 0.00 | 34 | 1023.0 |
| 20260906195043 | 28 | 190 | 12.9 | 17.7 | 0.00 | 0.00 | 0.00 | 33 | 1023.0 |
| 20260906194538 | 28 | 130 | 9.7 | 11.3 | 0.00 | 0.00 | 0.00 | 34 | 1023.1 |
| 20260906194034 | 28 | 135 | 3.2 | 9.7 | 0.00 | 0.00 | 0.00 | 33 | 1023.1 |
| 20260906193533 | 28 | 205 | 16.1 | 17.7 | 0.00 | 0.00 | 0.00 | 32 | 1023.4 |
| 20260906193029 | 27 | 184 | 17.7 | 17.7 | 0.00 | 0.00 | 0.00 | 32 | 1023.5 |
| 20260906192524 | 28 | 165 | 9.7 | 14.5 | 0.00 | 0.00 | 0.00 | 33 | 1023.4 |
| 20260906192023 | 27 | 176 | 9.7 | 14.5 | 0.00 | 0.00 | 0.00 | 32 | 1023.4 |
| 20260906191519 | 28 | 177 | 6.4 | 22.5 | 0.00 | 0.00 | 0.00 | 33 | 1023.5 |
| 20260906191017 | 28 | 109 | 6.4 | 12.9 | 0.00 | 0.00 | 0.00 | 32 | 1023.3 |
| 20260906190517 | 27 | 91 | 1.6 | 14.5 | 0.00 | 0.00 | 0.00 | 34 | 1023.6 |
| 20260906190012 | 27 | 188 | 3.2 | 14.5 | 0.00 | 0.00 | 0.00 | 34 | 1023.6 |
| 20260906185511 | 27 | 132 | 12.9 | 17.7 | 0.00 | 0.00 | 0.00 | 34 | 1023.9 |
| 20260906185010 | 27 | 153 | 17.7 | 24.1 | 0.00 | 0.00 | 0.00 | 34 | 1023.7 |
| 20260906184505 | 27 | 62 | 9.7 | 12.9 | 0.00 | 0.00 | 0.00 | 34 | 1023.7 |
| 20260906184001 | 27 | 196 | 8.0 | 9.7 | 0.00 | 0.00 | 0.00 | 34 | 1024.1 |
| 20260906183456 | 27 | 77 | 4.8 | 11.3 | 0.00 | 0.00 | 0.00 | 35 | 1024.1 |
| 20260906182952 | 27 | 139 | 9.7 | 22.5 | 0.00 | 0.00 | 0.00 | 34 | 1024.4 |
| 20260906182447 | 27 | 162 | 1.6 | 16.1 | 0.00 | 0.00 | 0.00 | 35 | 1024.4 |
| 20260906181943 | 27 | 221 | 9.7 | 17.7 | 0.00 | 0.00 | 0.00 | 35 | 1024.4 |
| 20260906181439 | 27 | 174 | 16.1 | 20.9 | 0.00 | 0.00 | 0.00 | 34 | 1024.7 |
| 20260906180934 | 27 | 199 | 6.4 | 16.1 | 0.00 | 0.00 | 0.00 | 35 | 1024.7 |
| 20260906180429 | 27 | 79 | 6.4 | 17.7 | 0.00 | 0.00 | 0.00 | 36 | 1024.8 |
| 20260906175927 | 27 | 155 | 6.4 | 16.1 | 0.00 | 0.00 | 0.00 | 34 | 1024.8 |
| 20260906175422 | 27 | 122 | 6.4 | 12.9 | 0.00 | 0.00 | 0.00 | 33 | 1024.8 |
| 20260906174920 | 27 | 198 | 9.7 | 12.9 | 0.00 | 0.00 | 0.00 | 34 | 1025.0 |
| 20260906174420 | 27 | 181 | 8.0 | 14.5 | 0.00 | 0.00 | 0.00 | 34 | 1025.1 |
| 20260906173915 | 27 | 117 | 8.0 | 11.3 | 0.00 | 0.00 | 0.00 | 34 | 1025.2 |
| 20260906173410 | 27 | 205 | 9.7 | 16.1 | 0.00 | 0.00 | 0.00 | 33 | 1025.2 |
| 20260906172909 | 26 | 76 | 1.6 | 12.9 | 0.00 | 0.00 | 0.00 | 35 | 1025.1 |
| 20260906172406 | 27 | 88 | 12.9 | 17.7 | 0.00 | 0.00 | 0.00 | 32 | 1025.3 |
| 20260906171901 | 27 | 94 | 6.4 | 11.3 | 0.00 | 0.00 | 0.00 | 33 | 1025.5 |
| 20260906171355 | 27 | 75 | 3.2 | 11.3 | 0.00 | 0.00 | 0.00 | 33 | 1025.6 |
| 20260906170851 | 26 | 87 | 4.8 | 11.3 | 0.00 | 0.00 | 0.00 | 33 | 1025.3 |
| 20260906170347 | 26 | 165 | 9.7 | 11.3 | 0.00 | 0.00 | 0.00 | 33 | 1025.3 |
| 20260906165843 | 26 | 222 | 8.0 | 14.5 | 0.00 | 0.00 | 0.00 | 32 | 1025.3 |
| 20260906165342 | 26 | 172 | 11.3 | 14.5 | 0.00 | 0.00 | 0.00 | 31 | 1025.5 |
| 20260906164838 | 26 | 76 | 6.4 | 14.5 | 0.00 | 0.00 | 0.00 | 32 | 1025.3 |
| 20260906164337 | 27 | 166 | 4.8 | 11.3 | 0.00 | 0.00 | 0.00 | 31 | 1025.3 |
| 20260906163833 | 27 | 181 | 6.4 | 11.3 | 0.00 | 0.00 | 0.00 | 30 | 1025.5 |
| 20260906163329 | 27 | 162 | 6.4 | 6.4 | 0.00 | 0.00 | 0.00 | 30 | 1025.5 |
| 20260906162826 | 26 | 108 | 4.8 | 6.4 | 0.00 | 0.00 | 0.00 | 32 | 1025.5 |
| 20260906162325 | 26 | 135 | 4.8 | 11.3 | 0.00 | 0.00 | 0.00 | 32 | 1025.5 |
| 20260906161821 | 26 | 79 | 1.6 | 9.7 | 0.00 | 0.00 | 0.00 | 31 | 1025.5 |
| 20260906161320 | 26 | 117 | 4.8 | 6.4 | 0.00 | 0.00 | 0.00 | 31 | 1025.2 |
| 20260906160819 | 26 | 144 | 3.2 | 4.8 | 0.00 | 0.00 | 0.00 | 31 | 1025.3 |
| 20260906160313 | 26 | 61 | 3.2 | 16.1 | 0.00 | 0.00 | 0.00 | 30 | 1025.6 |
| 20260906155811 | 27 | 48 | 1.6 | 4.8 | 0.00 | 0.00 | 0.00 | 30 | 1025.6 |
| 20260906155307 | 27 | 82 | 1.6 | 4.8 | 0.00 | 0.00 | 0.00 | 30 | 1025.5 |
| 20260906154802 | 26 | 65 | 1.6 | 3.2 | 0.00 | 0.00 | 0.00 | 31 | 1025.2 |
| 20260906154256 | 26 | 59 | 3.2 | 3.2 | 0.00 | 0.00 | 0.00 | 31 | 1025.3 |
| 20260906153754 | 25 | 57 | 0.0 | 3.2 | 0.00 | 0.00 | 0.00 | 33 | 1025.3 |
| 20260906153249 | 25 | 61 | 1.6 | 4.8 | 0.00 | 0.00 | 0.00 | 33 | 1025.2 |
| 20260906152745 | 25 | 69 | 3.2 | 3.2 | 0.00 | 0.00 | 0.00 | 34 | 1025.6 |
| 20260906152245 | 25 | 49 | 3.2 | 4.8 | 0.00 | 0.00 | 0.00 | 34 | 1025.3 |
| 20260906151744 | 25 | 41 | 3.2 | 4.8 | 0.00 | 0.00 | 0.00 | 34 | 1025.3 |
| 20260906151240 | 24 | 68 | 1.6 | 3.2 | 0.00 | 0.00 | 0.00 | 37 | 1025.3 |
| 20260906150735 | 24 | 52 | 4.8 | 6.4 | 0.00 | 0.00 | 0.00 | 34 | 1025.3 |
| 20260906150231 | 25 | 54 | 3.2 | 3.2 | 0.00 | 0.00 | 0.00 | 36 | 1025.2 |
| 20260906145729 | 24 | 79 | 1.6 | 3.2 | 0.00 | 0.00 | 0.00 | 36 | 1025.3 |
| 20260906145228 | 23 | 63 | 1.6 | 1.6 | 0.00 | 0.00 | 0.00 | 38 | 1025.1 |
| 20260906144724 | 23 | 63 | 3.2 | 3.2 | 0.00 | 0.00 | 0.00 | 37 | 1025.2 |
| 20260906144219 | 23 | 67 | 1.6 | 3.2 | 0.00 | 0.00 | 0.00 | 38 | 1025.2 |
| 20260906143718 | 23 | 63 | 1.6 | 3.2 | 0.00 | 0.00 | 0.00 | 38 | 1025.3 |
| 20260906143216 | 23 | 44 | 3.2 | 3.2 | 0.00 | 0.00 | 0.00 | 40 | 1025.2 |
| 20260906142715 | 23 | 69 | 1.6 | 3.2 | 0.00 | 0.00 | 0.00 | 40 | 1025.0 |
| 20260906142210 | 22 | 61 | 1.6 | 1.6 | 0.00 | 0.00 | 0.00 | 40 | 1024.8 |
| 20260906141709 | 22 | 69 | 0.0 | 1.6 | 0.00 | 0.00 | 0.00 | 39 | 1024.8 |
| 20260906141204 | 22 | 69 | 1.6 | 1.6 | 0.00 | 0.00 | 0.00 | 41 | 1025.2 |
| 20260906140703 | 22 | 69 | 1.6 | 1.6 | 0.00 | 0.00 | 0.00 | 40 | 1025.2 |
| 20260906140158 | 22 | 78 | 1.6 | 1.6 | 0.00 | 0.00 | 0.00 | 42 | 1025.2 |
| 20260906135655 | 21 | 78 | 0.0 | 1.6 | 0.00 | 0.00 | 0.00 | 43 | 1025.1 |
| 20260906135151 | 21 | 88 | 3.2 | 3.2 | 0.00 | 0.00 | 0.00 | 46 | 1025.1 |
| 20260906134647 | 21 | 85 | 1.6 | 3.2 | 0.00 | 0.00 | 0.00 | 47 | 1024.8 |
| 20260906134141 | 21 | 91 | 1.6 | 1.6 | 0.00 | 0.00 | 0.00 | 44 | 1024.8 |
| 20260906133637 | 21 | 112 | 0.0 | 0.0 | 0.00 | 0.00 | 0.00 | 47 | 1024.7 |
| 20260906133137 | 20 | 112 | 0.0 | 0.0 | 0.00 | 0.00 | 0.00 | 48 | 1024.7 |
| 20260906132633 | 20 | 113 | 1.6 | 1.6 | 0.00 | 0.00 | 0.00 | 48 | 1024.8 |
| 20260906132128 | 19 | 235 | 0.0 | 0.0 | 0.00 | 0.00 | 0.00 | 48 | 1024.8 |
| 20260906131624 | 18 | 244 | 3.2 | 3.2 | 0.00 | 0.00 | 0.00 | 48 | 1024.7 |
| 20260906131119 | 18 | 244 | 0.0 | 0.0 | 0.00 | 0.00 | 0.00 | 50 | 1024.8 |
| 20260906130614 | 18 | 244 | 0.0 | 1.6 | 0.00 | 0.00 | 0.00 | 50 | 1024.8 |
| 20260906130109 | 18 | 244 | 0.0 | 0.0 | 0.00 | 0.00 | 0.00 | 49 | 1024.6 |
| 20260906125607 | 18 | 244 | 1.6 | 1.6 | 0.00 | 0.00 | 0.00 | 49 | 1024.6 |
| 20260906125106 | 17 | 244 | 0.0 | 0.0 | 0.00 | 0.00 | 0.00 | 51 | 1024.6 |
| 20260906124602 | 17 | 244 | 0.0 | 1.6 | 0.00 | 0.00 | 0.00 | 51 | 1024.6 |
| 20260906124056 | 17 | 244 | 1.6 | 1.6 | 0.00 | 0.00 | 0.00 | 51 | 1024.6 |
| 20260906123555 | 17 | 244 | 0.0 | 0.0 | 0.00 | 0.00 | 0.00 | 50 | 1024.7 |
| 20260906123051 | 17 | 244 | 3.2 | 3.2 | 0.00 | 0.00 | 0.00 | 50 | 1024.4 |
| 20260906122550 | 17 | 244 | 0.0 | 0.0 | 0.00 | 0.00 | 0.00 | 51 | 1024.5 |
| 20260906122046 | 17 | 244 | 1.6 | 1.6 | 0.00 | 0.00 | 0.00 | 53 | 1024.5 |
| 20260906121542 | 16 | 243 | 1.6 | 1.6 | 0.00 | 0.00 | 0.00 | 52 | 1024.4 |
| 20260906121039 | 17 | 244 | 0.0 | 0.0 | 0.00 | 0.00 | 0.00 | 54 | 1024.1 |
| 20260906120533 | 16 | 243 | 1.6 | 1.6 | 0.00 | 0.00 | 0.00 | 52 | 1024.5 |
| 20260906120031 | 17 | 243 | 0.0 | 0.0 | 0.00 | 0.00 | 0.00 | 55 | 1024.2 |
| 20260906115531 | 17 | 244 | 0.0 | 3.2 | 0.00 | 0.00 | 0.00 | 55 | 1024.2 |
| 20260906115026 | 16 | 276 | 0.0 | 0.0 | 0.00 | 0.00 | 0.00 | 54 | 1024.4 |
| 20260906114526 | 16 | 176 | 0.0 | 0.0 | 0.00 | 0.00 | 0.00 | 54 | 1024.6 |
| 20260906114022 | 17 | 176 | 3.2 | 4.8 | 0.00 | 0.00 | 0.00 | 54 | 1024.1 |
| 20260906113520 | 17 | 175 | 1.6 | 1.6 | 0.00 | 0.00 | 0.00 | 51 | 1024.1 |
| 20260906113016 | 17 | 177 | 0.0 | 1.6 | 0.00 | 0.00 | 0.00 | 50 | 1024.1 |
| 20260906112510 | 17 | 151 | 0.0 | 1.6 | 0.00 | 0.00 | 0.00 | 51 | 1024.0 |
| 20260906112007 | 17 | 151 | 1.6 | 1.6 | 0.00 | 0.00 | 0.00 | 51 | 1024.0 |
| 20260906111506 | 17 | 151 | 0.0 | 0.0 | 0.00 | 0.00 | 0.00 | 53 | 1023.9 |
| 20260906111002 | 17 | 150 | 0.0 | 0.0 | 0.00 | 0.00 | 0.00 | 53 | 1023.9 |
| 20260906110456 | 17 | 150 | 0.0 | 0.0 | 0.00 | 0.00 | 0.00 | 52 | 1024.0 |
| 20260906105955 | 20 | 147 | 3.2 | 3.2 | 0.00 | 0.00 | 0.00 | 49 | 1023.9 |
| 20260906105451 | 20 | 330 | 3.2 | 3.2 | 0.00 | 0.00 | 0.00 | 43 | 1023.6 |
| 20260906104947 | 20 | 300 | 3.2 | 4.8 | 0.00 | 0.00 | 0.00 | 43 | 1023.6 |
| 20260906104445 | 20 | 260 | 3.2 | 3.2 | 0.00 | 0.00 | 0.00 | 44 | 1024.0 |
| 20260906103945 | 20 | 257 | 3.2 | 4.8 | 0.00 | 0.00 | 0.00 | 45 | 1023.7 |
| 20260906103443 | 18 | 258 | 4.8 | 4.8 | 0.00 | 0.00 | 0.00 | 47 | 1023.7 |
| 20260906102938 | 18 | 253 | 3.2 | 3.2 | 0.00 | 0.00 | 0.00 | 51 | 1024.1 |
| 20260906102438 | 18 | 336 | 1.6 | 1.6 | 0.00 | 0.00 | 0.00 | 52 | 1024.2 |
| 20260906101933 | 20 | 325 | 1.6 | 4.8 | 0.00 | 0.00 | 0.00 | 51 | 1024.4 |
| 20260906101428 | 19 | 219 | 8.0 | 12.9 | 0.00 | 0.00 | 0.00 | 52 | 1024.4 |
| 20260906100924 | 20 | 219 | 6.4 | 9.7 | 0.00 | 0.00 | 0.00 | 51 | 1024.2 |
| 20260906100424 | 20 | 169 | 3.2 | 4.8 | 0.00 | 0.00 | 0.00 | 42 | 1024.2 |
| 20260906095918 | 21 | 322 | 0.0 | 3.2 | 0.00 | 0.00 | 0.00 | 42 | 1024.2 |
| 20260906095414 | 20 | 333 | 1.6 | 3.2 | 0.00 | 0.00 | 0.00 | 42 | 1024.2 |
| 20260906094914 | 20 | 329 | 3.2 | 3.2 | 0.00 | 0.00 | 0.00 | 44 | 1024.1 |
| 20260906094408 | 19 | 315 | 0.0 | 0.0 | 0.00 | 0.00 | 0.00 | 45 | 1024.5 |
| 20260906093905 | 19 | 332 | 0.0 | 0.0 | 0.00 | 0.00 | 0.00 | 46 | 1024.4 |
| 20260906093401 | 19 | 332 | 0.0 | 0.0 | 0.00 | 0.00 | 0.00 | 45 | 1024.2 |
| 20260906092900 | 19 | 332 | 0.0 | 0.0 | 0.00 | 0.00 | 0.00 | 45 | 1024.1 |
| 20260906092400 | 20 | 332 | 0.0 | 0.0 | 0.00 | 0.00 | 0.00 | 45 | 1024.2 |
| 20260906091856 | 20 | 332 | 0.0 | 1.6 | 0.00 | 0.00 | 0.00 | 44 | 1024.4 |
| 20260906091352 | 20 | 332 | 3.2 | 3.2 | 0.00 | 0.00 | 0.00 | 44 | 1023.9 |
| 20260906090848 | 20 | 332 | 3.2 | 3.2 | 0.00 | 0.00 | 0.00 | 45 | 1024.1 |
| 20260906090347 | 20 | 332 | 3.2 | 4.8 | 0.00 | 0.00 | 0.00 | 45 | 1023.9 |
| 20260906085842 | 20 | 334 | 1.6 | 3.2 | 0.00 | 0.00 | 0.00 | 45 | 1024.2 |
| 20260906085341 | 20 | 340 | 1.6 | 4.8 | 0.00 | 0.00 | 0.00 | 46 | 1024.1 |
| 20260906084836 | 20 | 340 | 3.2 | 4.8 | 0.00 | 0.00 | 0.00 | 46 | 1024.0 |
| 20260906084336 | 20 | 311 | 1.6 | 6.4 | 0.00 | 0.00 | 0.00 | 47 | 1024.1 |
| 20260906083831 | 20 | 313 | 1.6 | 4.8 | 0.00 | 0.00 | 0.00 | 48 | 1024.0 |
| 20260906083327 | 20 | 314 | 3.2 | 6.4 | 0.00 | 0.00 | 0.00 | 49 | 1024.1 |
| 20260906082826 | 19 | 333 | 6.4 | 9.7 | 0.00 | 0.00 | 0.00 | 54 | 1024.0 |
| 20260906082321 | 19 | 318 | 1.6 | 3.2 | 0.00 | 0.00 | 0.00 | 55 | 1024.2 |
| 20260906081817 | 19 | 331 | 1.6 | 4.8 | 0.00 | 0.00 | 0.00 | 57 | 1024.2 |
| 20260906081313 | 19 | 334 | 3.2 | 4.8 | 0.00 | 0.00 | 0.00 | 57 | 1024.2 |
| 20260906080809 | 18 | 331 | 3.2 | 3.2 | 0.00 | 0.00 | 0.00 | 58 | 1024.4 |
| 20260906080305 | 18 | 6 | 1.6 | 1.6 | 0.00 | 0.00 | 0.00 | 60 | 1024.4 |
| 20260906075804 | 18 | 1 | 1.6 | 1.6 | 0.00 | 0.00 | 0.00 | 61 | 1024.5 |
| 20260906075306 | 17 | 0 | 0.0 | 0.0 | 0.00 | 0.00 | 0.00 | 64 | 1024.6 |
| 20260906074759 | 18 | 0 | 0.0 | 1.6 | 0.00 | 0.00 | 0.00 | 64 | 1024.4 |
| 20260906074259 | 18 | 359 | 0.0 | 0.0 | 0.00 | 0.00 | 0.00 | 63 | 1024.4 |
| 20260906073758 | 18 | 342 | 0.0 | 1.6 | 0.00 | 0.00 | 0.00 | 64 | 1024.5 |
| 20260906073253 | 18 | 340 | 0.0 | 0.0 | 0.00 | 0.00 | 0.00 | 63 | 1024.4 |
| 20260906072749 | 18 | 336 | 1.6 | 4.8 | 0.00 | 0.00 | 0.00 | 63 | 1024.4 |
| 20260906072244 | 18 | 321 | 1.6 | 1.6 | 0.00 | 0.00 | 0.00 | 63 | 1024.4 |
| 20260906071741 | 18 | 321 | 1.6 | 1.6 | 0.00 | 0.00 | 0.00 | 63 | 1024.5 |
| 20260906071240 | 18 | 273 | 0.0 | 1.6 | 0.00 | 0.00 | 0.00 | 63 | 1024.8 |
| 20260906070737 | 18 | 266 | 0.0 | 3.2 | 0.00 | 0.00 | 0.00 | 62 | 1024.7 |
| 20260906070232 | 18 | 299 | 1.6 | 3.2 | 0.00 | 0.00 | 0.00 | 63 | 1024.7 |
| 20260906065732 | 18 | 288 | 1.6 | 1.6 | 0.00 | 0.00 | 0.00 | 65 | 1024.7 |
| 20260906065227 | 17 | 172 | 0.0 | 1.6 | 0.00 | 0.00 | 0.00 | 66 | 1024.8 |
| 20260906064722 | 17 | 172 | 0.0 | 1.6 | 0.00 | 0.00 | 0.00 | 66 | 1024.8 |
| 20260906064218 | 17 | 173 | 1.6 | 1.6 | 0.00 | 0.00 | 0.00 | 67 | 1025.0 |
| 20260906063713 | 17 | 172 | 0.0 | 0.0 | 0.00 | 0.00 | 0.00 | 66 | 1024.7 |
| 20260906063209 | 18 | 203 | 0.0 | 0.0 | 0.00 | 0.00 | 0.00 | 65 | 1024.8 |
| 20260906062704 | 18 | 203 | 0.0 | 1.6 | 0.00 | 0.00 | 0.00 | 64 | 1024.7 |
| 20260906062203 | 18 | 203 | 1.6 | 1.6 | 0.00 | 0.00 | 0.00 | 63 | 1025.0 |
| 20260906061659 | 19 | 203 | 0.0 | 1.6 | 0.00 | 0.00 | 0.00 | 61 | 1024.7 |
| 20260906061155 | 19 | 204 | 4.8 | 4.8 | 0.00 | 0.00 | 0.00 | 62 | 1024.7 |
| 20260906060651 | 19 | 203 | 0.0 | 3.2 | 0.00 | 0.00 | 0.00 | 62 | 1024.7 |
| 20260906060148 | 18 | 204 | 3.2 | 4.8 | 0.00 | 0.00 | 0.00 | 65 | 1024.6 |
| 20260906055643 | 18 | 203 | 1.6 | 1.6 | 0.00 | 0.00 | 0.00 | 65 | 1024.5 |
| 20260906055138 | 19 | 203 | 0.0 | 0.0 | 0.00 | 0.00 | 0.00 | 62 | 1024.5 |
| 20260906054633 | 20 | 203 | 0.0 | 3.2 | 0.00 | 0.00 | 0.00 | 60 | 1024.1 |
| 20260906054128 | 20 | 204 | 3.2 | 4.8 | 0.00 | 0.00 | 0.00 | 61 | 1024.1 |
| 20260906053626 | 19 | 204 | 3.2 | 4.8 | 0.00 | 0.00 | 0.00 | 62 | 1024.4 |
| 20260906053126 | 18 | 203 | 4.8 | 4.8 | 0.00 | 0.00 | 0.00 | 64 | 1024.4 |
| 20260906052621 | 19 | 203 | 0.0 | 0.0 | 0.00 | 0.00 | 0.00 | 61 | 1024.4 |
| 20260906052118 | 20 | 203 | 0.0 | 3.2 | 0.00 | 0.00 | 0.00 | 61 | 1024.2 |
| 20260906051614 | 18 | 204 | 4.8 | 3.2 | 0.00 | 0.00 | 0.00 | 63 | 1024.4 |
| 20260906051108 | 18 | 203 | 3.2 | 1.6 | 0.00 | 0.00 | 0.00 | 63 | 1024.4 |
| 20260906050604 | 20 | 203 | 0.0 | 0.0 | 0.00 | 0.00 | 0.00 | 60 | 1024.5 |
| 20260906050059 | 20 | 204 | 1.6 | 3.2 | 0.00 | 0.00 | 0.00 | 58 | 1024.4 |
| 20260906045557 | 20 | 204 | 3.2 | 4.8 | 0.00 | 0.00 | 0.00 | 59 | 1024.5 |
| 20260906045053 | 19 | 203 | 4.8 | 4.8 | 0.00 | 0.00 | 0.00 | 61 | 1024.5 |
| 20260906044548 | 19 | 202 | 0.0 | 0.0 | 0.00 | 0.00 | 0.00 | 61 | 1024.6 |
| 20260906044044 | 20 | 202 | 0.0 | 0.0 | 0.00 | 0.00 | 0.00 | 60 | 1024.7 |
| 20260906043539 | 20 | 202 | 1.6 | 1.6 | 0.00 | 0.00 | 0.00 | 60 | 1024.5 |
| 20260906043036 | 20 | 202 | 0.0 | 0.0 | 0.00 | 0.00 | 0.00 | 60 | 1024.6 |
| 20260906042534 | 20 | 202 | 0.0 | 0.0 | 0.00 | 0.00 | 0.00 | 59 | 1024.8 |
| 20260906042029 | 20 | 202 | 1.6 | 3.2 | 0.00 | 0.00 | 0.00 | 58 | 1024.7 |
| 20260906041525 | 21 | 202 | 1.6 | 3.2 | 0.00 | 0.00 | 0.00 | 57 | 1024.8 |
| 20260906041025 | 20 | 202 | 3.2 | 3.2 | 0.00 | 0.00 | 0.00 | 58 | 1024.6 |
| 20260906040520 | 20 | 187 | 1.6 | 3.2 | 0.00 | 0.00 | 0.00 | 57 | 1024.5 |
| 20260906040016 | 21 | 185 | 0.0 | 0.0 | 0.00 | 0.00 | 0.00 | 56 | 1024.5 |
| 20260906035511 | 20 | 207 | 1.6 | 4.8 | 0.00 | 0.00 | 0.00 | 58 | 1024.7 |
| 20260906035007 | 20 | 216 | 0.0 | 0.0 | 0.00 | 0.00 | 0.00 | 57 | 1024.8 |
| 20260906034506 | 20 | 216 | 0.0 | 1.6 | 0.00 | 0.00 | 0.00 | 56 | 1024.7 |
| 20260906034001 | 20 | 216 | 0.0 | 0.0 | 0.00 | 0.00 | 0.00 | 55 | 1024.6 |
| 20260906033456 | 21 | 216 | 0.0 | 1.6 | 0.00 | 0.00 | 0.00 | 51 | 1024.7 |
| 20260906032952 | 22 | 218 | 3.2 | 4.8 | 0.00 | 0.00 | 0.00 | 51 | 1024.8 |
| 20260906032449 | 21 | 220 | 3.2 | 4.8 | 0.00 | 0.00 | 0.00 | 52 | 1024.6 |
| 20260906031948 | 22 | 210 | 3.2 | 3.2 | 0.00 | 0.00 | 0.00 | 51 | 1024.8 |
| 20260906031444 | 21 | 234 | 3.2 | 4.8 | 0.00 | 0.00 | 0.00 | 50 | 1024.5 |
| 20260906030939 | 21 | 235 | 3.2 | 4.8 | 0.00 | 0.00 | 0.00 | 47 | 1024.5 |
| 20260906030433 | 22 | 235 | 3.2 | 3.2 | 0.00 | 0.00 | 0.00 | 45 | 1024.5 |
| 20260906025928 | 22 | 234 | 1.6 | 3.2 | 0.00 | 0.00 | 0.00 | 46 | 1024.5 |
| 20260906025422 | 22 | 246 | 3.2 | 6.4 | 0.00 | 0.00 | 0.00 | 46 | 1024.1 |
| 20260906024921 | 21 | 227 | 9.7 | 9.7 | 0.00 | 0.00 | 0.00 | 48 | 1024.2 |
| 20260906024420 | 21 | 176 | 1.6 | 3.2 | 0.00 | 0.00 | 0.00 | 45 | 1024.4 |
| 20260906023916 | 21 | 211 | 1.6 | 3.2 | 0.00 | 0.00 | 0.00 | 41 | 1024.4 |
| 20260906023412 | 21 | 84 | 0.0 | 1.6 | 0.00 | 0.00 | 0.00 | 38 | 1024.1 |
| 20260906022912 | 20 | 65 | 0.0 | 9.7 | 0.00 | 0.00 | 0.00 | 38 | 1024.1 |
| 20260906022407 | 21 | 68 | 0.0 | 3.2 | 0.00 | 0.00 | 0.00 | 39 | 1023.9 |
| 20260906021902 | 22 | 236 | 0.0 | 0.0 | 0.00 | 0.00 | 0.00 | 35 | 1023.4 |
| 20260906021402 | 22 | 238 | 3.2 | 3.2 | 0.00 | 0.00 | 0.00 | 34 | 1023.4 |
| 20260906020857 | 23 | 244 | 3.2 | 3.2 | 0.00 | 0.00 | 0.00 | 33 | 1023.4 |
| 20260906020357 | 22 | 240 | 1.6 | 3.2 | 0.00 | 0.00 | 0.00 | 33 | 1023.1 |
| 20260906015851 | 23 | 234 | 3.2 | 4.8 | 0.00 | 0.00 | 0.00 | 33 | 1023.0 |
| 20260906015351 | 23 | 234 | 3.2 | 4.8 | 0.00 | 0.00 | 0.00 | 33 | 1023.0 |
| 20260906014851 | 22 | 251 | 3.2 | 3.2 | 0.00 | 0.00 | 0.00 | 35 | 1023.3 |
| 20260906014350 | 23 | 252 | 1.6 | 1.6 | 0.00 | 0.00 | 0.00 | 34 | 1023.0 |
| 20260906013847 | 23 | 252 | 1.6 | 3.2 | 0.00 | 0.00 | 0.00 | 33 | 1022.9 |
| 20260906013342 | 23 | 246 | 3.2 | 4.8 | 0.00 | 0.00 | 0.00 | 33 | 1022.8 |
| 20260906012837 | 23 | 254 | 3.2 | 3.2 | 0.00 | 0.00 | 0.00 | 33 | 1022.9 |
| 20260906012332 | 23 | 252 | 1.6 | 1.6 | 0.00 | 0.00 | 0.00 | 34 | 1022.9 |
| 20260906011832 | 23 | 252 | 0.0 | 1.6 | 0.00 | 0.00 | 0.00 | 34 | 1022.8 |
| 20260906011327 | 23 | 252 | 0.0 | 1.6 | 0.00 | 0.00 | 0.00 | 33 | 1022.9 |
| 20260906010823 | 23 | 252 | 3.2 | 3.2 | 0.00 | 0.00 | 0.00 | 33 | 1022.9 |
| 20260906010319 | 23 | 253 | 1.6 | 1.6 | 0.00 | 0.00 | 0.00 | 33 | 1022.8 |
| 20260906005814 | 23 | 253 | 3.2 | 3.2 | 0.00 | 0.00 | 0.00 | 34 | 1023.0 |
| 20260906005313 | 25 | 206 | 3.2 | 3.2 | 0.00 | 0.00 | 0.00 | 34 | 1023.0 |
| 20260906004812 | 25 | 292 | 0.0 | 1.6 | 0.00 | 0.00 | 0.00 | 33 | 1023.0 |
| 20260906004312 | 25 | 269 | 0.0 | 0.0 | 0.00 | 0.00 | 0.00 | 32 | 1023.1 |
| 20260906003807 | 26 | 258 | 0.0 | 3.2 | 0.00 | 0.00 | 0.00 | 30 | 1023.0 |
| 20260906003303 | 26 | 258 | 0.0 | 0.0 | 0.00 | 0.00 | 0.00 | 30 | 1023.3 |
| 20260906002758 | 26 | 257 | 0.0 | 3.2 | 0.00 | 0.00 | 0.00 | 29 | 1023.3 |
| 20260906002257 | 26 | 260 | 3.2 | 3.2 | 0.00 | 0.00 | 0.00 | 28 | 1023.3 |
| 20260906001753 | 27 | 294 | 1.6 | 1.6 | 0.00 | 0.00 | 0.00 | 27 | 1023.0 |
| 20260906001248 | 27 | 295 | 0.0 | 0.0 | 0.00 | 0.00 | 0.00 | 27 | 1023.1 |
| 20260906000743 | 27 | 293 | 0.0 | 0.0 | 0.00 | 0.00 | 0.00 | 28 | 1023.3 |
| 20260906000243 | 27 | 289 | 0.0 | 0.0 | 0.00 | 0.00 | 0.00 | 27 | 1023.1 |
| 20260905235738 | 27 | 282 | 0.0 | 0.0 | 0.00 | 0.00 | 0.00 | 27 | 1023.1 |
| 20260905235238 | 27 | 274 | 0.0 | 0.0 | 0.00 | 0.00 | 0.00 | 27 | 1023.3 |
| 20260905234734 | 27 | 274 | 0.0 | 0.0 | 0.00 | 0.00 | 0.00 | 27 | 1023.0 |
| 20260905234229 | 27 | 264 | 0.0 | 1.6 | 0.00 | 0.00 | 0.00 | 27 | 1023.1 |
| 20260905233724 | 27 | 260 | 0.0 | 0.0 | 0.00 | 0.00 | 0.00 | 27 | 1023.0 |
| 20260905233223 | 27 | 259 | 0.0 | 0.0 | 0.00 | 0.00 | 0.00 | 27 | 1022.9 |
| 20260905232718 | 27 | 259 | 0.0 | 1.6 | 0.00 | 0.00 | 0.00 | 27 | 1023.0 |
| 20260905232214 | 27 | 258 | 1.6 | 3.2 | 0.00 | 0.00 | 0.00 | 27 | 1023.1 |
| 20260905231710 | 27 | 137 | 1.6 | 1.6 | 0.00 | 0.00 | 0.00 | 27 | 1022.9 |
| 20260905231205 | 27 | 142 | 0.0 | 1.6 | 0.00 | 0.00 | 0.00 | 28 | 1023.0 |
| 20260905230701 | 27 | 181 | 0.0 | 0.0 | 0.00 | 0.00 | 0.00 | 27 | 1022.8 |
| 20260905230159 | 27 | 181 | 0.0 | 0.0 | 0.00 | 0.00 | 0.00 | 27 | 1023.0 |
| 20260905225659 | 27 | 45 | 0.0 | 3.2 | 0.00 | 0.00 | 0.00 | 26 | 1023.0 |
| 20260905225154 | 28 | 100 | 1.6 | 3.2 | 0.00 | 0.00 | 0.00 | 26 | 1022.9 |
| 20260905224654 | 27 | 257 | 0.0 | 0.0 | 0.00 | 0.00 | 0.00 | 27 | 1023.1 |
| 20260905224153 | 26 | 254 | 0.0 | 1.6 | 0.00 | 0.00 | 0.00 | 29 | 1023.1 |
| 20260905223650 | 26 | 342 | 0.0 | 1.6 | 0.00 | 0.00 | 0.00 | 30 | 1023.3 |
| 20260905223147 | 26 | 267 | 3.2 | 3.2 | 0.00 | 0.00 | 0.00 | 30 | 1023.1 |
| 20260905222643 | 26 | 340 | 1.6 | 4.8 | 0.00 | 0.00 | 0.00 | 31 | 1023.4 |
| 20260905222143 | 26 | 344 | 6.4 | 9.7 | 0.00 | 0.00 | 0.00 | 31 | 1023.3 |
| 20260905221638 | 26 | 325 | 3.2 | 9.7 | 0.00 | 0.00 | 0.00 | 31 | 1023.4 |
| 20260905221135 | 26 | 347 | 1.6 | 3.2 | 0.00 | 0.00 | 0.00 | 32 | 1023.3 |
| 20260905220630 | 26 | 256 | 3.2 | 3.2 | 0.00 | 0.00 | 0.00 | 33 | 1023.4 |
| 20260905220126 | 26 | 280 | 1.6 | 3.2 | 0.00 | 0.00 | 0.00 | 31 | 1023.7 |